sensor_id;sensor_type;location;lat;lon;timestamp;P1;durP1;ratioP1;P2;durP2;ratioP2
16393;SDS011;8306;51.128;4.476;2023-07-31T00:01:13;11.20;;;5.57;;
16393;SDS011;8306;51.128;4.476;2023-07-31T00:03:40;10.97;;;5.50;;
16393;SDS011;8306;51.128;4.476;2023-07-31T00:06:06;10.47;;;5.27;;
16393;SDS011;8306;51.128;4.476;2023-07-31T00:08:33;10.47;;;6.23;;
16393;SDS011;8306;51.128;4.476;2023-07-31T00:10:59;7.33;;;5.33;;
16393;SDS011;8306;51.128;4.476;2023-07-31T00:13:26;9.47;;;6.43;;
16393;SDS011;8306;51.128;4.476;2023-07-31T00:15:52;10.47;;;5.97;;
16393;SDS011;8306;51.128;4.476;2023-07-31T00:18:19;9.60;;;6.10;;
16393;SDS011;8306;51.128;4.476;2023-07-31T00:20:45;13.23;;;6.47;;
16393;SDS011;8306;51.128;4.476;2023-07-31T00:23:12;9.43;;;6.50;;
16393;SDS011;8306;51.128;4.476;2023-07-31T00:25:39;7.87;;;5.77;;
16393;SDS011;8306;51.128;4.476;2023-07-31T00:28:05;10.70;;;6.37;;
16393;SDS011;8306;51.128;4.476;2023-07-31T00:30:31;8.40;;;5.73;;
16393;SDS011;8306;51.128;4.476;2023-07-31T00:32:58;12.67;;;6.20;;
16393;SDS011;8306;51.128;4.476;2023-07-31T00:35:24;8.47;;;5.47;;
16393;SDS011;8306;51.128;4.476;2023-07-31T00:37:51;8.23;;;5.30;;
16393;SDS011;8306;51.128;4.476;2023-07-31T00:40:17;8.13;;;5.23;;
16393;SDS011;8306;51.128;4.476;2023-07-31T00:42:44;9.80;;;6.23;;
16393;SDS011;8306;51.128;4.476;2023-07-31T00:45:10;8.50;;;5.70;;
16393;SDS011;8306;51.128;4.476;2023-07-31T00:47:36;9.13;;;5.40;;
16393;SDS011;8306;51.128;4.476;2023-07-31T00:50:03;8.33;;;5.43;;
16393;SDS011;8306;51.128;4.476;2023-07-31T00:52:29;8.63;;;5.90;;
16393;SDS011;8306;51.128;4.476;2023-07-31T00:54:56;9.67;;;6.03;;
16393;SDS011;8306;51.128;4.476;2023-07-31T00:57:22;9.87;;;5.83;;
16393;SDS011;8306;51.128;4.476;2023-07-31T00:59:49;9.27;;;6.17;;
16393;SDS011;8306;51.128;4.476;2023-07-31T01:02:16;11.93;;;6.30;;
16393;SDS011;8306;51.128;4.476;2023-07-31T01:04:42;9.43;;;4.90;;
16393;SDS011;8306;51.128;4.476;2023-07-31T01:10:04;9.00;;;5.60;;
16393;SDS011;8306;51.128;4.476;2023-07-31T01:12:29;11.80;;;6.47;;
16393;SDS011;8306;51.128;4.476;2023-07-31T01:15:08;8.70;;;6.00;;
16393;SDS011;8306;51.128;4.476;2023-07-31T01:17:34;9.23;;;6.17;;
16393;SDS011;8306;51.128;4.476;2023-07-31T01:20:02;9.57;;;5.80;;
16393;SDS011;8306;51.128;4.476;2023-07-31T01:25:00;10.43;;;6.00;;
16393;SDS011;8306;51.128;4.476;2023-07-31T01:27:28;7.67;;;5.60;;
16393;SDS011;8306;51.128;4.476;2023-07-31T01:29:56;9.10;;;5.80;;
16393;SDS011;8306;51.128;4.476;2023-07-31T01:32:21;8.63;;;5.33;;
16393;SDS011;8306;51.128;4.476;2023-07-31T01:34:48;6.97;;;5.27;;
16393;SDS011;8306;51.128;4.476;2023-07-31T01:37:14;9.97;;;6.00;;
16393;SDS011;8306;51.128;4.476;2023-07-31T01:39:41;7.83;;;5.30;;
16393;SDS011;8306;51.128;4.476;2023-07-31T01:42:07;8.23;;;5.80;;
16393;SDS011;8306;51.128;4.476;2023-07-31T01:44:34;11.90;;;6.17;;
16393;SDS011;8306;51.128;4.476;2023-07-31T01:47:00;13.47;;;6.70;;
16393;SDS011;8306;51.128;4.476;2023-07-31T01:49:27;10.77;;;5.57;;
16393;SDS011;8306;51.128;4.476;2023-07-31T01:51:53;9.37;;;6.03;;
16393;SDS011;8306;51.128;4.476;2023-07-31T01:54:20;8.90;;;5.67;;
16393;SDS011;8306;51.128;4.476;2023-07-31T01:56:46;8.97;;;5.27;;
16393;SDS011;8306;51.128;4.476;2023-07-31T01:59:13;13.63;;;6.20;;
16393;SDS011;8306;51.128;4.476;2023-07-31T02:01:39;9.37;;;5.40;;
16393;SDS011;8306;51.128;4.476;2023-07-31T02:04:06;6.97;;;5.20;;
16393;SDS011;8306;51.128;4.476;2023-07-31T02:06:32;9.17;;;5.60;;
16393;SDS011;8306;51.128;4.476;2023-07-31T02:08:59;9.87;;;5.50;;
16393;SDS011;8306;51.128;4.476;2023-07-31T02:11:25;9.17;;;5.80;;
16393;SDS011;8306;51.128;4.476;2023-07-31T02:13:51;9.30;;;5.40;;
16393;SDS011;8306;51.128;4.476;2023-07-31T02:16:18;10.03;;;5.73;;
16393;SDS011;8306;51.128;4.476;2023-07-31T02:18:44;10.60;;;5.47;;
16393;SDS011;8306;51.128;4.476;2023-07-31T02:21:11;8.10;;;5.47;;
16393;SDS011;8306;51.128;4.476;2023-07-31T02:23:37;8.00;;;5.50;;
16393;SDS011;8306;51.128;4.476;2023-07-31T02:26:04;8.63;;;5.80;;
16393;SDS011;8306;51.128;4.476;2023-07-31T02:28:30;8.97;;;5.30;;
16393;SDS011;8306;51.128;4.476;2023-07-31T02:30:57;10.27;;;5.20;;
16393;SDS011;8306;51.128;4.476;2023-07-31T02:33:23;9.87;;;5.53;;
16393;SDS011;8306;51.128;4.476;2023-07-31T02:35:50;9.23;;;5.50;;
16393;SDS011;8306;51.128;4.476;2023-07-31T02:38:16;11.27;;;5.70;;
16393;SDS011;8306;51.128;4.476;2023-07-31T02:40:43;8.80;;;5.83;;
16393;SDS011;8306;51.128;4.476;2023-07-31T02:43:09;11.23;;;5.40;;
16393;SDS011;8306;51.128;4.476;2023-07-31T02:45:36;11.43;;;6.20;;
16393;SDS011;8306;51.128;4.476;2023-07-31T02:48:02;9.67;;;5.13;;
16393;SDS011;8306;51.128;4.476;2023-07-31T02:50:29;13.17;;;5.07;;
16393;SDS011;8306;51.128;4.476;2023-07-31T02:52:55;8.13;;;4.40;;
16393;SDS011;8306;51.128;4.476;2023-07-31T02:55:22;9.50;;;5.47;;
16393;SDS011;8306;51.128;4.476;2023-07-31T02:57:48;10.33;;;5.77;;
16393;SDS011;8306;51.128;4.476;2023-07-31T03:00:15;7.83;;;5.40;;
16393;SDS011;8306;51.128;4.476;2023-07-31T03:02:41;8.20;;;5.10;;
16393;SDS011;8306;51.128;4.476;2023-07-31T03:05:08;9.13;;;5.03;;
16393;SDS011;8306;51.128;4.476;2023-07-31T03:07:34;9.67;;;5.03;;
16393;SDS011;8306;51.128;4.476;2023-07-31T03:10:01;11.43;;;6.07;;
16393;SDS011;8306;51.128;4.476;2023-07-31T03:12:27;8.60;;;4.87;;
16393;SDS011;8306;51.128;4.476;2023-07-31T03:14:53;12.43;;;5.90;;
16393;SDS011;8306;51.128;4.476;2023-07-31T03:17:20;9.83;;;4.93;;
16393;SDS011;8306;51.128;4.476;2023-07-31T03:19:46;8.40;;;5.40;;
16393;SDS011;8306;51.128;4.476;2023-07-31T03:22:13;7.13;;;5.07;;
16393;SDS011;8306;51.128;4.476;2023-07-31T03:24:39;9.07;;;5.67;;
16393;SDS011;8306;51.128;4.476;2023-07-31T03:27:06;8.83;;;5.50;;
16393;SDS011;8306;51.128;4.476;2023-07-31T03:29:32;15.00;;;5.63;;
16393;SDS011;8306;51.128;4.476;2023-07-31T03:31:59;8.30;;;5.40;;
16393;SDS011;8306;51.128;4.476;2023-07-31T03:34:25;8.30;;;5.87;;
16393;SDS011;8306;51.128;4.476;2023-07-31T03:36:52;8.13;;;5.80;;
16393;SDS011;8306;51.128;4.476;2023-07-31T03:39:18;9.93;;;5.10;;
16393;SDS011;8306;51.128;4.476;2023-07-31T03:41:45;10.23;;;6.27;;
16393;SDS011;8306;51.128;4.476;2023-07-31T03:44:11;7.23;;;5.43;;
16393;SDS011;8306;51.128;4.476;2023-07-31T03:46:38;7.63;;;5.53;;
16393;SDS011;8306;51.128;4.476;2023-07-31T03:49:04;8.70;;;5.43;;
16393;SDS011;8306;51.128;4.476;2023-07-31T03:51:31;8.37;;;5.93;;
16393;SDS011;8306;51.128;4.476;2023-07-31T03:53:57;6.50;;;5.47;;
16393;SDS011;8306;51.128;4.476;2023-07-31T03:56:24;7.53;;;5.03;;
16393;SDS011;8306;51.128;4.476;2023-07-31T03:58:50;8.83;;;5.93;;
16393;SDS011;8306;51.128;4.476;2023-07-31T04:01:17;9.23;;;5.90;;
16393;SDS011;8306;51.128;4.476;2023-07-31T04:03:43;6.23;;;5.33;;
16393;SDS011;8306;51.128;4.476;2023-07-31T04:06:10;7.57;;;5.50;;
16393;SDS011;8306;51.128;4.476;2023-07-31T04:08:36;8.57;;;5.70;;
16393;SDS011;8306;51.128;4.476;2023-07-31T04:11:02;7.27;;;5.27;;
16393;SDS011;8306;51.128;4.476;2023-07-31T04:13:29;8.63;;;5.53;;
16393;SDS011;8306;51.128;4.476;2023-07-31T04:15:55;5.03;;;3.33;;
16393;SDS011;8306;51.128;4.476;2023-07-31T04:18:24;3.90;;;2.83;;
16393;SDS011;8306;51.128;4.476;2023-07-31T04:20:48;3.73;;;2.83;;
16393;SDS011;8306;51.128;4.476;2023-07-31T04:23:15;2.30;;;2.10;;
16393;SDS011;8306;51.128;4.476;2023-07-31T04:25:41;3.60;;;2.30;;
16393;SDS011;8306;51.128;4.476;2023-07-31T04:28:08;3.17;;;2.60;;
16393;SDS011;8306;51.128;4.476;2023-07-31T04:30:34;4.17;;;2.10;;
16393;SDS011;8306;51.128;4.476;2023-07-31T04:33:01;2.67;;;2.10;;
16393;SDS011;8306;51.128;4.476;2023-07-31T04:35:27;3.73;;;2.53;;
16393;SDS011;8306;51.128;4.476;2023-07-31T04:37:54;4.63;;;2.80;;
16393;SDS011;8306;51.128;4.476;2023-07-31T04:40:20;3.97;;;2.93;;
16393;SDS011;8306;51.128;4.476;2023-07-31T04:42:47;4.40;;;3.00;;
16393;SDS011;8306;51.128;4.476;2023-07-31T04:45:13;7.47;;;2.83;;
16393;SDS011;8306;51.128;4.476;2023-07-31T04:47:40;3.90;;;3.03;;
16393;SDS011;8306;51.128;4.476;2023-07-31T04:50:06;4.90;;;3.00;;
16393;SDS011;8306;51.128;4.476;2023-07-31T04:52:33;3.47;;;2.57;;
16393;SDS011;8306;51.128;4.476;2023-07-31T04:54:59;3.40;;;2.70;;
16393;SDS011;8306;51.128;4.476;2023-07-31T04:57:26;4.67;;;2.17;;
16393;SDS011;8306;51.128;4.476;2023-07-31T04:59:52;3.87;;;2.30;;
16393;SDS011;8306;51.128;4.476;2023-07-31T05:02:19;3.00;;;2.70;;
16393;SDS011;8306;51.128;4.476;2023-07-31T05:04:45;3.50;;;2.17;;
16393;SDS011;8306;51.128;4.476;2023-07-31T05:07:12;4.23;;;2.50;;
16393;SDS011;8306;51.128;4.476;2023-07-31T05:09:38;2.80;;;2.33;;
16393;SDS011;8306;51.128;4.476;2023-07-31T05:12:05;5.73;;;2.40;;
16393;SDS011;8306;51.128;4.476;2023-07-31T05:14:31;2.13;;;1.90;;
16393;SDS011;8306;51.128;4.476;2023-07-31T05:16:57;3.73;;;2.27;;
16393;SDS011;8306;51.128;4.476;2023-07-31T05:19:24;3.80;;;2.60;;
16393;SDS011;8306;51.128;4.476;2023-07-31T05:21:50;4.07;;;3.20;;
16393;SDS011;8306;51.128;4.476;2023-07-31T05:24:17;3.70;;;2.30;;
16393;SDS011;8306;51.128;4.476;2023-07-31T05:26:43;2.80;;;2.47;;
16393;SDS011;8306;51.128;4.476;2023-07-31T05:29:10;5.03;;;2.77;;
16393;SDS011;8306;51.128;4.476;2023-07-31T05:31:36;3.53;;;2.40;;
16393;SDS011;8306;51.128;4.476;2023-07-31T05:34:03;3.00;;;2.73;;
16393;SDS011;8306;51.128;4.476;2023-07-31T05:36:29;3.07;;;2.70;;
16393;SDS011;8306;51.128;4.476;2023-07-31T05:38:56;4.13;;;2.87;;
16393;SDS011;8306;51.128;4.476;2023-07-31T05:41:22;2.97;;;2.67;;
16393;SDS011;8306;51.128;4.476;2023-07-31T05:43:49;2.80;;;2.60;;
16393;SDS011;8306;51.128;4.476;2023-07-31T05:46:15;3.03;;;2.50;;
16393;SDS011;8306;51.128;4.476;2023-07-31T05:48:42;3.77;;;3.10;;
16393;SDS011;8306;51.128;4.476;2023-07-31T05:51:08;3.87;;;2.60;;
16393;SDS011;8306;51.128;4.476;2023-07-31T05:53:35;5.07;;;2.93;;
16393;SDS011;8306;51.128;4.476;2023-07-31T05:56:01;3.00;;;2.30;;
16393;SDS011;8306;51.128;4.476;2023-07-31T05:58:28;3.47;;;2.17;;
16393;SDS011;8306;51.128;4.476;2023-07-31T06:00:54;3.87;;;2.50;;
16393;SDS011;8306;51.128;4.476;2023-07-31T06:03:21;7.03;;;3.20;;
16393;SDS011;8306;51.128;4.476;2023-07-31T06:05:47;5.83;;;2.77;;
16393;SDS011;8306;51.128;4.476;2023-07-31T06:08:14;4.77;;;3.10;;
16393;SDS011;8306;51.128;4.476;2023-07-31T06:10:40;3.33;;;2.20;;
16393;SDS011;8306;51.128;4.476;2023-07-31T06:13:07;2.77;;;2.20;;
16393;SDS011;8306;51.128;4.476;2023-07-31T06:15:33;3.60;;;3.10;;
16393;SDS011;8306;51.128;4.476;2023-07-31T06:17:59;3.57;;;3.20;;
16393;SDS011;8306;51.128;4.476;2023-07-31T06:20:26;7.73;;;3.73;;
16393;SDS011;8306;51.128;4.476;2023-07-31T06:22:52;4.17;;;3.07;;
16393;SDS011;8306;51.128;4.476;2023-07-31T06:25:19;3.83;;;3.43;;
16393;SDS011;8306;51.128;4.476;2023-07-31T06:27:45;3.33;;;2.50;;
16393;SDS011;8306;51.128;4.476;2023-07-31T06:30:12;3.90;;;2.50;;
16393;SDS011;8306;51.128;4.476;2023-07-31T06:32:38;4.43;;;2.90;;
16393;SDS011;8306;51.128;4.476;2023-07-31T06:35:05;4.13;;;2.57;;
16393;SDS011;8306;51.128;4.476;2023-07-31T06:37:31;2.67;;;2.37;;
16393;SDS011;8306;51.128;4.476;2023-07-31T06:39:58;2.53;;;2.23;;
16393;SDS011;8306;51.128;4.476;2023-07-31T06:42:24;5.47;;;2.40;;
16393;SDS011;8306;51.128;4.476;2023-07-31T06:44:51;4.90;;;3.27;;
16393;SDS011;8306;51.128;4.476;2023-07-31T06:47:17;3.80;;;3.07;;
16393;SDS011;8306;51.128;4.476;2023-07-31T06:49:44;6.30;;;2.80;;
16393;SDS011;8306;51.128;4.476;2023-07-31T06:52:10;2.90;;;2.27;;
16393;SDS011;8306;51.128;4.476;2023-07-31T06:54:37;3.10;;;2.30;;
16393;SDS011;8306;51.128;4.476;2023-07-31T06:57:03;4.23;;;2.37;;
16393;SDS011;8306;51.128;4.476;2023-07-31T06:59:30;3.10;;;2.17;;
16393;SDS011;8306;51.128;4.476;2023-07-31T07:01:56;3.07;;;2.50;;
16393;SDS011;8306;51.128;4.476;2023-07-31T07:04:25;3.00;;;2.23;;
16393;SDS011;8306;51.128;4.476;2023-07-31T07:06:52;3.60;;;2.83;;
16393;SDS011;8306;51.128;4.476;2023-07-31T07:09:18;2.63;;;2.10;;
16393;SDS011;8306;51.128;4.476;2023-07-31T07:11:45;3.53;;;2.30;;
16393;SDS011;8306;51.128;4.476;2023-07-31T07:14:11;3.50;;;2.40;;
16393;SDS011;8306;51.128;4.476;2023-07-31T07:16:38;2.33;;;2.13;;
16393;SDS011;8306;51.128;4.476;2023-07-31T07:19:04;4.10;;;2.30;;
16393;SDS011;8306;51.128;4.476;2023-07-31T07:21:30;4.43;;;2.30;;
16393;SDS011;8306;51.128;4.476;2023-07-31T07:23:57;4.20;;;2.23;;
16393;SDS011;8306;51.128;4.476;2023-07-31T07:26:23;2.50;;;2.10;;
16393;SDS011;8306;51.128;4.476;2023-07-31T07:28:50;2.87;;;2.10;;
16393;SDS011;8306;51.128;4.476;2023-07-31T07:31:16;3.60;;;2.37;;
16393;SDS011;8306;51.128;4.476;2023-07-31T07:33:43;3.00;;;2.40;;
16393;SDS011;8306;51.128;4.476;2023-07-31T07:36:09;3.63;;;2.30;;
16393;SDS011;8306;51.128;4.476;2023-07-31T07:38:36;3.23;;;2.10;;
16393;SDS011;8306;51.128;4.476;2023-07-31T07:41:02;2.87;;;2.27;;
16393;SDS011;8306;51.128;4.476;2023-07-31T07:43:29;2.77;;;2.23;;
16393;SDS011;8306;51.128;4.476;2023-07-31T07:45:55;4.40;;;2.60;;
16393;SDS011;8306;51.128;4.476;2023-07-31T07:48:22;3.13;;;2.00;;
16393;SDS011;8306;51.128;4.476;2023-07-31T07:50:48;3.57;;;2.00;;
16393;SDS011;8306;51.128;4.476;2023-07-31T07:53:15;3.33;;;2.40;;
16393;SDS011;8306;51.128;4.476;2023-07-31T07:55:41;2.37;;;1.97;;
16393;SDS011;8306;51.128;4.476;2023-07-31T07:58:08;3.77;;;2.30;;
16393;SDS011;8306;51.128;4.476;2023-07-31T08:00:34;2.80;;;2.03;;
16393;SDS011;8306;51.128;4.476;2023-07-31T08:03:01;4.40;;;2.00;;
16393;SDS011;8306;51.128;4.476;2023-07-31T08:05:27;2.77;;;1.90;;
16393;SDS011;8306;51.128;4.476;2023-07-31T08:07:54;2.97;;;2.73;;
16393;SDS011;8306;51.128;4.476;2023-07-31T08:10:20;2.77;;;2.50;;
16393;SDS011;8306;51.128;4.476;2023-07-31T08:12:47;2.63;;;2.03;;
16393;SDS011;8306;51.128;4.476;2023-07-31T08:15:13;4.80;;;2.97;;
16393;SDS011;8306;51.128;4.476;2023-07-31T08:17:39;2.80;;;2.10;;
16393;SDS011;8306;51.128;4.476;2023-07-31T08:20:07;4.40;;;2.90;;
16393;SDS011;8306;51.128;4.476;2023-07-31T08:22:33;2.47;;;2.27;;
16393;SDS011;8306;51.128;4.476;2023-07-31T08:25:00;4.43;;;2.87;;
16393;SDS011;8306;51.128;4.476;2023-07-31T08:27:26;2.50;;;2.30;;
16393;SDS011;8306;51.128;4.476;2023-07-31T08:29:53;3.00;;;2.30;;
16393;SDS011;8306;51.128;4.476;2023-07-31T08:32:19;5.10;;;2.53;;
16393;SDS011;8306;51.128;4.476;2023-07-31T08:34:46;3.50;;;1.90;;
16393;SDS011;8306;51.128;4.476;2023-07-31T08:37:12;2.27;;;2.07;;
16393;SDS011;8306;51.128;4.476;2023-07-31T08:39:39;2.50;;;2.10;;
16393;SDS011;8306;51.128;4.476;2023-07-31T08:42:07;4.13;;;2.10;;
16393;SDS011;8306;51.128;4.476;2023-07-31T08:44:32;3.27;;;2.00;;
16393;SDS011;8306;51.128;4.476;2023-07-31T08:46:59;2.57;;;1.93;;
16393;SDS011;8306;51.128;4.476;2023-07-31T08:49:25;2.63;;;2.37;;
16393;SDS011;8306;51.128;4.476;2023-07-31T08:51:51;2.23;;;2.00;;
16393;SDS011;8306;51.128;4.476;2023-07-31T08:54:18;3.37;;;2.10;;
16393;SDS011;8306;51.128;4.476;2023-07-31T08:56:44;4.00;;;1.97;;
16393;SDS011;8306;51.128;4.476;2023-07-31T08:59:11;5.17;;;2.00;;
16393;SDS011;8306;51.128;4.476;2023-07-31T09:01:38;5.17;;;2.17;;
16393;SDS011;8306;51.128;4.476;2023-07-31T09:04:04;4.20;;;2.03;;
16393;SDS011;8306;51.128;4.476;2023-07-31T09:06:30;3.07;;;2.37;;
16393;SDS011;8306;51.128;4.476;2023-07-31T09:08:57;2.73;;;2.27;;
16393;SDS011;8306;51.128;4.476;2023-07-31T09:11:23;1.90;;;1.70;;
16393;SDS011;8306;51.128;4.476;2023-07-31T09:13:49;3.13;;;1.97;;
16393;SDS011;8306;51.128;4.476;2023-07-31T09:16:16;3.00;;;2.17;;
16393;SDS011;8306;51.128;4.476;2023-07-31T09:18:54;2.37;;;1.90;;
16393;SDS011;8306;51.128;4.476;2023-07-31T09:21:21;3.50;;;1.97;;
16393;SDS011;8306;51.128;4.476;2023-07-31T09:23:47;3.13;;;2.00;;
16393;SDS011;8306;51.128;4.476;2023-07-31T09:26:35;2.53;;;2.27;;
16393;SDS011;8306;51.128;4.476;2023-07-31T09:28:55;4.07;;;3.10;;
16393;SDS011;8306;51.128;4.476;2023-07-31T09:31:40;3.17;;;2.60;;
16393;SDS011;8306;51.128;4.476;2023-07-31T09:34:09;3.30;;;3.00;;
16393;SDS011;8306;51.128;4.476;2023-07-31T09:39:15;2.37;;;2.17;;
16393;SDS011;8306;51.128;4.476;2023-07-31T09:41:41;3.00;;;2.47;;
16393;SDS011;8306;51.128;4.476;2023-07-31T09:44:07;6.23;;;2.67;;
16393;SDS011;8306;51.128;4.476;2023-07-31T09:46:36;3.97;;;2.57;;
16393;SDS011;8306;51.128;4.476;2023-07-31T09:51:35;3.63;;;2.40;;
16393;SDS011;8306;51.128;4.476;2023-07-31T09:56:43;2.60;;;2.40;;
16393;SDS011;8306;51.128;4.476;2023-07-31T09:59:10;2.90;;;2.40;;
16393;SDS011;8306;51.128;4.476;2023-07-31T10:01:35;3.20;;;2.70;;
16393;SDS011;8306;51.128;4.476;2023-07-31T10:04:01;2.80;;;2.60;;
16393;SDS011;8306;51.128;4.476;2023-07-31T10:06:28;3.03;;;2.80;;
16393;SDS011;8306;51.128;4.476;2023-07-31T10:08:54;4.97;;;2.93;;
16393;SDS011;8306;51.128;4.476;2023-07-31T10:11:21;5.37;;;2.57;;
16393;SDS011;8306;51.128;4.476;2023-07-31T10:13:47;2.77;;;2.20;;
16393;SDS011;8306;51.128;4.476;2023-07-31T10:16:14;2.97;;;2.20;;
16393;SDS011;8306;51.128;4.476;2023-07-31T10:18:40;2.40;;;2.20;;
16393;SDS011;8306;51.128;4.476;2023-07-31T10:21:07;2.83;;;2.30;;
16393;SDS011;8306;51.128;4.476;2023-07-31T10:23:33;2.10;;;1.90;;
16393;SDS011;8306;51.128;4.476;2023-07-31T10:26:00;2.30;;;2.10;;
16393;SDS011;8306;51.128;4.476;2023-07-31T10:28:26;2.20;;;2.00;;
16393;SDS011;8306;51.128;4.476;2023-07-31T10:30:53;2.63;;;2.43;;
16393;SDS011;8306;51.128;4.476;2023-07-31T10:33:19;2.40;;;2.23;;
16393;SDS011;8306;51.128;4.476;2023-07-31T10:35:47;3.13;;;2.47;;
16393;SDS011;8306;51.128;4.476;2023-07-31T10:38:12;2.90;;;2.70;;
16393;SDS011;8306;51.128;4.476;2023-07-31T10:40:39;3.43;;;2.37;;
16393;SDS011;8306;51.128;4.476;2023-07-31T10:43:05;3.27;;;2.67;;
16393;SDS011;8306;51.128;4.476;2023-07-31T10:48:05;2.90;;;2.70;;
16393;SDS011;8306;51.128;4.476;2023-07-31T10:50:38;2.77;;;2.57;;
16393;SDS011;8306;51.128;4.476;2023-07-31T10:53:03;2.63;;;2.43;;
16393;SDS011;8306;51.128;4.476;2023-07-31T10:55:39;3.43;;;2.50;;
16393;SDS011;8306;51.128;4.476;2023-07-31T10:58:08;3.23;;;2.93;;
16393;SDS011;8306;51.128;4.476;2023-07-31T11:00:34;4.10;;;3.20;;
16393;SDS011;8306;51.128;4.476;2023-07-31T11:03:01;3.47;;;3.17;;
16393;SDS011;8306;51.128;4.476;2023-07-31T11:06:18;3.30;;;2.90;;
16393;SDS011;8306;51.128;4.476;2023-07-31T11:08:18;3.83;;;3.20;;
16393;SDS011;8306;51.128;4.476;2023-07-31T11:10:43;4.77;;;3.20;;
16393;SDS011;8306;51.128;4.476;2023-07-31T11:13:10;3.93;;;3.53;;
16393;SDS011;8306;51.128;4.476;2023-07-31T11:15:36;3.97;;;3.10;;
16393;SDS011;8306;51.128;4.476;2023-07-31T11:18:03;3.53;;;3.20;;
16393;SDS011;8306;51.128;4.476;2023-07-31T11:20:29;3.63;;;3.33;;
16393;SDS011;8306;51.128;4.476;2023-07-31T11:22:58;5.40;;;3.90;;
16393;SDS011;8306;51.128;4.476;2023-07-31T11:25:22;4.00;;;3.53;;
16393;SDS011;8306;51.128;4.476;2023-07-31T11:27:49;3.43;;;2.97;;
16393;SDS011;8306;51.128;4.476;2023-07-31T11:30:15;5.03;;;3.13;;
16393;SDS011;8306;51.128;4.476;2023-07-31T11:32:42;3.83;;;3.20;;
16393;SDS011;8306;51.128;4.476;2023-07-31T11:35:11;4.03;;;3.57;;
16393;SDS011;8306;51.128;4.476;2023-07-31T11:37:41;4.57;;;3.30;;
16393;SDS011;8306;51.128;4.476;2023-07-31T11:40:07;3.83;;;3.00;;
16393;SDS011;8306;51.128;4.476;2023-07-31T11:42:36;4.57;;;2.87;;
16393;SDS011;8306;51.128;4.476;2023-07-31T11:45:07;3.53;;;3.10;;
16393;SDS011;8306;51.128;4.476;2023-07-31T11:47:29;4.83;;;3.67;;
16393;SDS011;8306;51.128;4.476;2023-07-31T11:49:56;4.40;;;3.80;;
16393;SDS011;8306;51.128;4.476;2023-07-31T11:52:22;6.23;;;3.50;;
16393;SDS011;8306;51.128;4.476;2023-07-31T11:54:51;5.57;;;3.93;;
16393;SDS011;8306;51.128;4.476;2023-07-31T11:57:18;3.77;;;3.20;;
16393;SDS011;8306;51.128;4.476;2023-07-31T11:59:44;3.43;;;3.13;;
16393;SDS011;8306;51.128;4.476;2023-07-31T12:02:11;5.27;;;3.50;;
16393;SDS011;8306;51.128;4.476;2023-07-31T12:04:37;4.07;;;3.30;;
16393;SDS011;8306;51.128;4.476;2023-07-31T12:07:04;3.83;;;3.40;;
16393;SDS011;8306;51.128;4.476;2023-07-31T12:09:30;6.00;;;3.90;;
16393;SDS011;8306;51.128;4.476;2023-07-31T12:11:57;4.93;;;3.80;;
16393;SDS011;8306;51.128;4.476;2023-07-31T12:14:24;4.27;;;3.83;;
16393;SDS011;8306;51.128;4.476;2023-07-31T12:16:54;4.27;;;3.83;;
16393;SDS011;8306;51.128;4.476;2023-07-31T12:19:19;4.90;;;3.20;;
16393;SDS011;8306;51.128;4.476;2023-07-31T12:21:45;4.00;;;3.37;;
16393;SDS011;8306;51.128;4.476;2023-07-31T12:24:12;5.30;;;3.50;;
16393;SDS011;8306;51.128;4.476;2023-07-31T12:26:38;3.57;;;3.23;;
16393;SDS011;8306;51.128;4.476;2023-07-31T12:29:06;4.43;;;2.90;;
16393;SDS011;8306;51.128;4.476;2023-07-31T12:31:31;4.57;;;3.20;;
16393;SDS011;8306;51.128;4.476;2023-07-31T12:33:58;4.57;;;3.00;;
16393;SDS011;8306;51.128;4.476;2023-07-31T12:36:24;3.90;;;3.40;;
16393;SDS011;8306;51.128;4.476;2023-07-31T12:38:51;5.47;;;3.37;;
16393;SDS011;8306;51.128;4.476;2023-07-31T12:41:17;3.40;;;2.67;;
16393;SDS011;8306;51.128;4.476;2023-07-31T12:43:44;5.93;;;3.40;;
16393;SDS011;8306;51.128;4.476;2023-07-31T12:46:10;5.67;;;3.20;;
16393;SDS011;8306;51.128;4.476;2023-07-31T12:48:37;3.77;;;3.20;;
16393;SDS011;8306;51.128;4.476;2023-07-31T12:51:03;4.00;;;3.20;;
16393;SDS011;8306;51.128;4.476;2023-07-31T12:53:30;3.63;;;2.80;;
16393;SDS011;8306;51.128;4.476;2023-07-31T12:55:56;4.33;;;3.03;;
16393;SDS011;8306;51.128;4.476;2023-07-31T12:58:23;3.73;;;2.80;;
16393;SDS011;8306;51.128;4.476;2023-07-31T13:00:49;4.07;;;3.23;;
16393;SDS011;8306;51.128;4.476;2023-07-31T13:03:16;3.07;;;2.63;;
16393;SDS011;8306;51.128;4.476;2023-07-31T13:05:42;6.73;;;3.23;;
16393;SDS011;8306;51.128;4.476;2023-07-31T13:08:09;4.77;;;2.67;;
16393;SDS011;8306;51.128;4.476;2023-07-31T13:10:35;3.67;;;2.90;;
16393;SDS011;8306;51.128;4.476;2023-07-31T13:13:01;7.93;;;3.00;;
16393;SDS011;8306;51.128;4.476;2023-07-31T13:15:28;6.93;;;3.10;;
16393;SDS011;8306;51.128;4.476;2023-07-31T13:17:54;5.47;;;2.93;;
16393;SDS011;8306;51.128;4.476;2023-07-31T13:20:21;3.30;;;2.57;;
16393;SDS011;8306;51.128;4.476;2023-07-31T13:22:47;4.87;;;2.80;;
16393;SDS011;8306;51.128;4.476;2023-07-31T13:25:14;6.47;;;2.70;;
16393;SDS011;8306;51.128;4.476;2023-07-31T13:27:40;4.20;;;2.67;;
16393;SDS011;8306;51.128;4.476;2023-07-31T13:30:07;2.83;;;2.33;;
16393;SDS011;8306;51.128;4.476;2023-07-31T13:32:33;4.27;;;2.23;;
16393;SDS011;8306;51.128;4.476;2023-07-31T13:35:00;3.27;;;2.30;;
16393;SDS011;8306;51.128;4.476;2023-07-31T13:37:26;3.37;;;2.57;;
16393;SDS011;8306;51.128;4.476;2023-07-31T13:39:53;3.87;;;2.50;;
16393;SDS011;8306;51.128;4.476;2023-07-31T13:42:19;2.83;;;2.00;;
16393;SDS011;8306;51.128;4.476;2023-07-31T13:44:46;2.50;;;1.87;;
16393;SDS011;8306;51.128;4.476;2023-07-31T13:47:12;3.07;;;2.10;;
16393;SDS011;8306;51.128;4.476;2023-07-31T13:49:40;2.47;;;1.80;;
16393;SDS011;8306;51.128;4.476;2023-07-31T13:52:05;2.40;;;1.90;;
16393;SDS011;8306;51.128;4.476;2023-07-31T13:54:32;3.77;;;2.03;;
16393;SDS011;8306;51.128;4.476;2023-07-31T13:56:58;2.90;;;2.10;;
16393;SDS011;8306;51.128;4.476;2023-07-31T13:59:25;3.07;;;2.27;;
16393;SDS011;8306;51.128;4.476;2023-07-31T14:01:51;2.40;;;2.00;;
16393;SDS011;8306;51.128;4.476;2023-07-31T14:04:18;2.23;;;2.00;;
16393;SDS011;8306;51.128;4.476;2023-07-31T14:06:44;1.97;;;1.40;;
16393;SDS011;8306;51.128;4.476;2023-07-31T14:09:11;4.10;;;2.80;;
16393;SDS011;8306;51.128;4.476;2023-07-31T14:11:37;2.90;;;2.60;;
16393;SDS011;8306;51.128;4.476;2023-07-31T14:14:03;2.37;;;1.60;;
16393;SDS011;8306;51.128;4.476;2023-07-31T14:16:30;2.10;;;1.57;;
16393;SDS011;8306;51.128;4.476;2023-07-31T14:18:56;1.80;;;1.70;;
16393;SDS011;8306;51.128;4.476;2023-07-31T14:21:23;1.83;;;1.40;;
16393;SDS011;8306;51.128;4.476;2023-07-31T14:23:49;2.03;;;1.70;;
16393;SDS011;8306;51.128;4.476;2023-07-31T14:26:16;1.40;;;1.30;;
16393;SDS011;8306;51.128;4.476;2023-07-31T14:28:42;1.83;;;1.10;;
16393;SDS011;8306;51.128;4.476;2023-07-31T14:31:09;1.87;;;1.47;;
16393;SDS011;8306;51.128;4.476;2023-07-31T14:33:35;1.70;;;1.47;;
16393;SDS011;8306;51.128;4.476;2023-07-31T14:36:02;2.63;;;1.60;;
16393;SDS011;8306;51.128;4.476;2023-07-31T14:38:28;3.00;;;2.00;;
16393;SDS011;8306;51.128;4.476;2023-07-31T14:40:55;1.87;;;1.67;;
16393;SDS011;8306;51.128;4.476;2023-07-31T14:43:21;1.90;;;1.73;;
16393;SDS011;8306;51.128;4.476;2023-07-31T14:45:48;1.60;;;1.50;;
16393;SDS011;8306;51.128;4.476;2023-07-31T14:48:14;2.30;;;2.10;;
16393;SDS011;8306;51.128;4.476;2023-07-31T14:50:41;2.20;;;2.00;;
16393;SDS011;8306;51.128;4.476;2023-07-31T14:53:07;2.33;;;2.13;;
16393;SDS011;8306;51.128;4.476;2023-07-31T14:55:34;2.47;;;2.03;;
16393;SDS011;8306;51.128;4.476;2023-07-31T14:58:00;3.23;;;2.27;;
16393;SDS011;8306;51.128;4.476;2023-07-31T15:00:27;2.43;;;2.23;;
16393;SDS011;8306;51.128;4.476;2023-07-31T15:02:53;2.20;;;2.10;;
16393;SDS011;8306;51.128;4.476;2023-07-31T15:05:20;2.37;;;1.70;;
16393;SDS011;8306;51.128;4.476;2023-07-31T15:07:46;2.90;;;1.73;;
16393;SDS011;8306;51.128;4.476;2023-07-31T15:10:12;5.50;;;2.10;;
16393;SDS011;8306;51.128;4.476;2023-07-31T15:12:40;3.17;;;1.53;;